createdAt,value
2016-09-22T00:00:21.341Z,0
2016-09-22T00:01:21.390Z,0
2016-09-22T00:02:21.392Z,0
2016-09-22T00:03:21.469Z,0
2016-09-22T00:04:21.443Z,0
2016-09-22T00:05:21.762Z,0
2016-09-22T00:06:21.468Z,0
2016-09-22T00:07:21.488Z,0
2016-09-22T00:08:21.868Z,0
2016-09-22T00:09:21.212Z,0
2016-09-22T00:10:21.551Z,0
2016-09-22T00:11:21.573Z,0
2016-09-22T00:12:21.894Z,0
2016-09-22T00:13:21.614Z,0
2016-09-22T00:14:21.619Z,0
2016-09-22T00:15:21.982Z,0
2016-09-22T00:16:21.971Z,0
2016-09-22T00:17:21.788Z,0
2016-09-22T00:18:22.021Z,0
2016-09-22T00:19:21.418Z,0
2016-09-22T00:20:21.181Z,0
2016-09-22T00:21:21.772Z,0
2016-09-22T00:22:21.508Z,0
2016-09-22T00:23:21.859Z,0
2016-09-22T00:24:21.833Z,0
2016-09-22T00:25:21.851Z,0
2016-09-22T00:26:21.907Z,0
2016-09-22T00:27:21.901Z,0
2016-09-22T00:28:21.621Z,0
2016-09-22T00:29:22.251Z,0
2016-09-22T00:30:22.006Z,0
2016-09-22T00:31:21.732Z,0
2016-09-22T00:32:22.471Z,0
2016-09-22T00:33:21.763Z,0
2016-09-22T00:34:22.410Z,0
2016-09-22T00:35:22.382Z,0
2016-09-22T00:36:21.766Z,0
2016-09-22T00:37:22.101Z,0
2016-09-22T00:38:22.420Z,0
2016-09-22T00:39:22.451Z,0
2016-09-22T00:40:22.466Z,0
2016-09-22T00:41:22.172Z,0
2016-09-22T00:42:22.488Z,0
2016-09-22T00:43:21.911Z,0
2016-09-22T00:44:22.381Z,0
2016-09-22T00:45:22.372Z,0
2016-09-22T00:46:22.289Z,0
2016-09-22T00:47:22.341Z,0
2016-09-22T00:48:22.382Z,0
2016-09-22T00:49:22.650Z,0
2016-09-22T00:50:22.411Z,0
2016-09-22T00:51:22.383Z,0
2016-09-22T00:52:22.408Z,0
2016-09-22T00:53:22.789Z,0
2016-09-22T00:54:22.769Z,0
2016-09-22T00:55:22.148Z,0
2016-09-22T00:56:22.491Z,0
2016-09-22T00:57:22.506Z,0
2016-09-22T00:58:22.995Z,0
2016-09-22T00:59:22.554Z,0
2016-09-22T01:00:22.600Z,0
2016-09-22T01:01:22.889Z,0
2016-09-22T01:02:22.279Z,0
2016-09-22T01:03:22.632Z,0
2016-09-22T01:04:22.645Z,0
2016-09-22T01:05:22.980Z,0
2016-09-22T01:06:22.683Z,0
2016-09-22T01:07:23.015Z,0
2016-09-22T01:08:22.731Z,0
2016-09-22T01:09:23.061Z,0
2016-09-22T01:10:22.768Z,0
2016-09-22T01:11:23.192Z,0
2016-09-22T01:12:23.113Z,0
2016-09-22T01:13:22.908Z,0
2016-09-22T01:14:22.230Z,0
2016-09-22T01:15:23.165Z,0
2016-09-22T01:16:22.250Z,0
2016-09-22T01:17:22.915Z,0
2016-09-22T01:18:22.969Z,0
2016-09-22T01:19:23.260Z,0
2016-09-22T01:20:22.994Z,0
2016-09-22T01:21:23.299Z,0
2016-09-22T01:22:22.690Z,0
2016-09-22T01:23:23.080Z,0
2016-09-22T01:24:23.052Z,0
2016-09-22T01:25:23.406Z,0
2016-09-22T01:26:22.778Z,0
2016-09-22T01:27:23.101Z,0
2016-09-22T01:28:23.427Z,0
2016-09-22T01:29:23.450Z,0
2016-09-22T01:30:23.471Z,0
2016-09-22T01:31:22.874Z,0
2016-09-22T01:32:23.200Z,0
2016-09-22T01:33:23.367Z,0
2016-09-22T01:34:23.560Z,0
2016-09-22T01:35:22.961Z,0
2016-09-22T01:36:23.661Z,0
2016-09-22T01:37:23.327Z,0
2016-09-22T01:38:23.322Z,0
2016-09-22T01:39:23.659Z,0
2016-09-22T01:40:23.369Z,0
2016-09-22T01:41:23.387Z,0
2016-09-22T01:42:23.682Z,0
2016-09-22T01:43:23.159Z,0
2016-09-22T01:44:23.124Z,0
2016-09-22T01:45:23.784Z,0
2016-09-22T01:46:23.836Z,0
2016-09-22T01:47:23.811Z,0
2016-09-22T01:48:23.875Z,0
2016-09-22T01:49:23.540Z,0
2016-09-22T01:50:23.610Z,0
2016-09-22T01:51:23.578Z,0
2016-09-22T01:52:23.932Z,0
2016-09-22T01:53:23.379Z,0
2016-09-22T01:54:23.343Z,0
2016-09-22T01:55:23.658Z,0
2016-09-22T01:56:23.986Z,0
2016-09-22T01:57:23.389Z,0
2016-09-22T01:58:23.827Z,0
2016-09-22T01:59:24.088Z,0
2016-09-22T02:00:23.818Z,0
2016-09-22T02:01:23.464Z,0
2016-09-22T02:02:24.106Z,0
2016-09-22T02:03:23.864Z,0
2016-09-22T02:04:23.531Z,0
2016-09-22T02:05:23.837Z,0
2016-09-22T02:06:23.562Z,0
2016-09-22T02:07:23.896Z,0
2016-09-22T02:08:23.650Z,0
2016-09-22T02:09:24.040Z,0
2016-09-22T02:10:24.269Z,0
2016-09-22T02:11:23.984Z,0
2016-09-22T02:12:24.398Z,0
2016-09-22T02:13:24.012Z,0
2016-09-22T02:14:23.715Z,0
2016-09-22T02:15:24.380Z,0
2016-09-22T02:16:24.073Z,0
2016-09-22T02:17:24.082Z,0
2016-09-22T02:18:24.407Z,0
2016-09-22T02:19:24.142Z,0
2016-09-22T02:20:23.539Z,0
2016-09-22T02:21:24.495Z,0
2016-09-22T02:22:24.507Z,0
2016-09-22T02:23:24.500Z,0
2016-09-22T02:24:23.969Z,0
2016-09-22T02:25:23.668Z,0
2016-09-22T02:26:23.810Z,0
2016-09-22T02:27:23.974Z,0
2016-09-22T02:28:24.328Z,0
2016-09-22T02:29:24.624Z,0
2016-09-22T02:30:24.318Z,0
2016-09-22T02:31:24.683Z,0
2016-09-22T02:32:24.691Z,0
2016-09-22T02:33:24.429Z,0
2016-09-22T02:34:24.728Z,0
2016-09-22T02:35:24.754Z,0
2016-09-22T02:36:24.786Z,0
2016-09-22T02:37:24.487Z,0
2016-09-22T02:38:24.627Z,0
2016-09-22T02:39:24.291Z,0
2016-09-22T02:40:24.268Z,0
2016-09-22T02:41:24.595Z,0
2016-09-22T02:42:24.580Z,0
2016-09-22T02:43:24.595Z,0
2016-09-22T02:44:25.080Z,0
2016-09-22T02:45:24.759Z,0
2016-09-22T02:46:24.349Z,0
2016-09-22T02:47:24.687Z,0
2016-09-22T02:48:24.740Z,0
2016-09-22T02:49:25.157Z,0
2016-09-22T02:50:25.138Z,0
2016-09-22T02:51:25.141Z,0
2016-09-22T02:52:25.093Z,0
2016-09-22T02:53:24.814Z,0
2016-09-22T02:54:24.501Z,0
2016-09-22T02:55:24.888Z,0
2016-09-22T02:56:25.173Z,0
2016-09-22T02:57:25.185Z,0
2016-09-22T02:58:24.639Z,0
2016-09-22T02:59:24.918Z,0
2016-09-22T03:00:24.958Z,0
2016-09-22T03:01:25.749Z,0
2016-09-22T03:02:25.295Z,0
2016-09-22T03:03:24.995Z,0
2016-09-22T03:04:25.351Z,0
2016-09-22T03:05:25.350Z,0
2016-09-22T03:06:24.751Z,0
2016-09-22T03:07:25.090Z,0
2016-09-22T03:08:25.161Z,0
2016-09-22T03:09:25.128Z,0
2016-09-22T03:10:25.160Z,0
2016-09-22T03:11:25.482Z,0
2016-09-22T03:12:25.181Z,0
2016-09-22T03:13:25.757Z,0
2016-09-22T03:14:24.898Z,0
2016-09-22T03:15:24.929Z,0
2016-09-22T03:16:26.015Z,0
2016-09-22T03:17:25.309Z,0
2016-09-22T03:18:26.076Z,0
2016-09-22T03:19:25.058Z,0
2016-09-22T03:20:25.959Z,0
2016-09-22T03:21:25.357Z,0
2016-09-22T03:22:25.047Z,0
2016-09-22T03:23:25.450Z,0
2016-09-22T03:24:25.558Z,0
2016-09-22T03:25:25.929Z,0
2016-09-22T03:26:25.806Z,0
2016-09-22T03:27:25.471Z,0
2016-09-22T03:28:25.840Z,0
2016-09-22T03:29:25.529Z,0
2016-09-22T03:30:25.534Z,0
2016-09-22T03:31:26.081Z,0
2016-09-22T03:32:25.877Z,0
2016-09-22T03:33:25.287Z,0
2016-09-22T03:34:25.356Z,0
2016-09-22T03:35:26.005Z,0
2016-09-22T03:36:25.047Z,0
2016-09-22T03:37:26.020Z,0
2016-09-22T03:38:26.037Z,0
2016-09-22T03:39:25.399Z,0
2016-09-22T03:40:25.902Z,0
2016-09-22T03:41:26.001Z,0
2016-09-22T03:42:26.195Z,0
2016-09-22T03:43:26.183Z,0
2016-09-22T03:44:25.556Z,0
2016-09-22T03:45:25.937Z,0
2016-09-22T03:46:26.160Z,0
2016-09-22T03:47:25.923Z,0
2016-09-22T03:48:26.256Z,0
2016-09-22T03:49:25.898Z,0
2016-09-22T03:50:26.077Z,0
2016-09-22T03:51:25.688Z,0
2016-09-22T03:52:26.220Z,0
2016-09-22T03:53:26.298Z,0
2016-09-22T03:54:26.338Z,0
2016-09-22T03:55:26.025Z,0
2016-09-22T03:56:26.150Z,0
2016-09-22T03:57:26.057Z,0
2016-09-22T03:58:26.146Z,0
2016-09-22T03:59:26.117Z,0
2016-09-22T04:00:26.214Z,0
2016-09-22T04:01:25.993Z,0
2016-09-22T04:02:26.207Z,0
2016-09-22T04:03:26.233Z,0
2016-09-22T04:04:26.524Z,0
2016-09-22T04:05:26.016Z,0
2016-09-22T04:06:26.266Z,0
2016-09-22T04:07:26.369Z,0
2016-09-22T04:08:26.085Z,0
2016-09-22T04:09:26.093Z,0
2016-09-22T04:10:26.323Z,0
2016-09-22T04:11:26.356Z,0
2016-09-22T04:12:26.683Z,0
2016-09-22T04:13:25.827Z,0
2016-09-22T04:14:26.503Z,0
2016-09-22T04:15:26.226Z,0
2016-09-22T04:16:26.465Z,0
2016-09-22T04:17:26.495Z,0
2016-09-22T04:18:26.684Z,0
2016-09-22T04:19:26.858Z,0
2016-09-22T04:20:26.221Z,0
2016-09-22T04:21:26.255Z,0
2016-09-22T04:22:26.916Z,0
2016-09-22T04:23:26.580Z,0
2016-09-22T04:24:26.603Z,0
2016-09-22T04:25:26.615Z,0
2016-09-22T04:26:26.645Z,0
2016-09-22T04:27:26.347Z,0
2016-09-22T04:28:27.002Z,0
2016-09-22T04:29:26.740Z,0
2016-09-22T04:30:26.722Z,0
2016-09-22T04:31:26.439Z,0
2016-09-22T04:32:26.765Z,0
2016-09-22T04:33:26.616Z,0
2016-09-22T04:34:26.807Z,4
2016-09-22T04:35:27.124Z,4
2016-09-22T04:36:26.831Z,0
2016-09-22T04:37:27.157Z,4
2016-09-22T04:38:27.191Z,4
2016-09-22T04:39:26.572Z,0
2016-09-22T04:40:26.611Z,4
2016-09-22T04:41:27.242Z,4
2016-09-22T04:42:26.643Z,56
2016-09-22T04:43:26.702Z,56
2016-09-22T04:44:27.297Z,60
2016-09-22T04:45:27.011Z,12
2016-09-22T04:46:27.431Z,12
2016-09-22T04:47:26.422Z,12
2016-09-22T04:48:27.059Z,16
2016-09-22T04:49:26.767Z,16
2016-09-22T04:50:27.401Z,16
2016-09-22T04:51:27.453Z,24
2016-09-22T04:52:27.138Z,28
2016-09-22T04:53:27.260Z,32
2016-09-22T04:54:26.880Z,36
2016-09-22T04:55:27.279Z,44
2016-09-22T04:56:26.900Z,52
2016-09-22T04:57:27.568Z,64
2016-09-22T04:58:27.311Z,72
2016-09-22T04:59:27.272Z,84
2016-09-22T05:00:27.611Z,92
2016-09-22T05:01:27.387Z,108
2016-09-22T05:02:27.343Z,120
2016-09-22T05:03:27.354Z,136
2016-09-22T05:04:27.611Z,148
2016-09-22T05:05:27.697Z,160
2016-09-22T05:06:27.420Z,176
2016-09-22T05:07:27.440Z,196
2016-09-22T05:08:27.658Z,212
2016-09-22T05:09:27.887Z,232
2016-09-22T05:10:27.539Z,252
2016-09-22T05:11:26.888Z,272
2016-09-22T05:12:27.952Z,296
2016-09-22T05:13:27.282Z,324
2016-09-22T05:14:27.557Z,356
2016-09-22T05:15:27.623Z,384
2016-09-22T05:16:26.974Z,412
2016-09-22T05:17:27.620Z,444
2016-09-22T05:18:27.697Z,480
2016-09-22T05:19:27.959Z,520
2016-09-22T05:20:27.825Z,564
2016-09-22T05:21:28.007Z,604
2016-09-22T05:22:27.805Z,640
2016-09-22T05:23:27.737Z,680
2016-09-22T05:24:27.840Z,712
2016-09-22T05:25:28.288Z,752
2016-09-22T05:26:27.779Z,804
2016-09-22T05:27:28.129Z,848
2016-09-22T05:28:27.942Z,900
2016-09-22T05:29:28.156Z,952
2016-09-22T05:30:27.921Z,1008
2016-09-22T05:31:27.933Z,1060
2016-09-22T05:32:28.001Z,1108
2016-09-22T05:33:27.982Z,1164
2016-09-22T05:34:27.634Z,1224
2016-09-22T05:35:28.063Z,1288
2016-09-22T05:36:28.314Z,1352
2016-09-22T05:37:28.307Z,1412
2016-09-22T05:38:28.392Z,1468
2016-09-22T05:39:27.740Z,1528
2016-09-22T05:40:28.189Z,1592
2016-09-22T05:41:28.063Z,1656
2016-09-22T05:42:28.097Z,1728
2016-09-22T05:43:28.455Z,1808
2016-09-22T05:44:28.207Z,1884
2016-09-22T05:45:28.168Z,1968
2016-09-22T05:46:28.518Z,2048
2016-09-22T05:47:28.617Z,2136
2016-09-22T05:48:28.269Z,2216
2016-09-22T05:49:28.283Z,2296
2016-09-22T05:50:27.991Z,2364
2016-09-22T05:51:28.288Z,2428
2016-09-22T05:52:27.683Z,2484
2016-09-22T05:53:28.379Z,2544
2016-09-22T05:54:28.442Z,2604
2016-09-22T05:55:28.052Z,2664
2016-09-22T05:56:28.384Z,2724
2016-09-22T05:57:28.382Z,2784
2016-09-22T05:58:28.163Z,2848
2016-09-22T05:59:28.112Z,2920
2016-09-22T06:00:28.441Z,3000
2016-09-22T06:01:28.465Z,3080
2016-09-22T06:02:28.889Z,3160
2016-09-22T06:03:28.563Z,3224
2016-09-22T06:04:28.514Z,3288
2016-09-22T06:05:28.579Z,3360
2016-09-22T06:06:28.877Z,3440
2016-09-22T06:07:28.902Z,3516
2016-09-22T06:08:28.293Z,3596
2016-09-22T06:09:28.941Z,3680
2016-09-22T06:10:28.338Z,3768
2016-09-22T06:11:28.780Z,3864
2016-09-22T06:12:28.992Z,3972
2016-09-22T06:13:28.952Z,4084
2016-09-22T06:14:28.722Z,4192
2016-09-22T06:15:29.272Z,4304
2016-09-22T06:16:28.773Z,4396
2016-09-22T06:17:28.781Z,4496
2016-09-22T06:18:29.114Z,4560
2016-09-22T06:19:29.420Z,4608
2016-09-22T06:20:28.830Z,4648
2016-09-22T06:21:30.334Z,4672
2016-09-22T06:22:28.570Z,4812
2016-09-22T06:23:28.985Z,5016
2016-09-22T06:24:29.014Z,5244
2016-09-22T06:25:28.943Z,5464
2016-09-22T06:26:29.339Z,5656
2016-09-22T06:27:29.356Z,5864
2016-09-22T06:28:29.403Z,6120
2016-09-22T06:29:29.026Z,6300
2016-09-22T06:30:29.353Z,6356
2016-09-22T06:31:29.355Z,6276
2016-09-22T06:32:29.384Z,6216
2016-09-22T06:33:29.414Z,6284
2016-09-22T06:34:28.812Z,6376
2016-09-22T06:35:28.827Z,6500
2016-09-22T06:36:28.847Z,6736
2016-09-22T06:37:29.550Z,6984
2016-09-22T06:38:29.415Z,7244
2016-09-22T06:39:29.483Z,7328
2016-09-22T06:40:29.086Z,7516
2016-09-22T06:41:29.283Z,7972
2016-09-22T06:42:29.173Z,8932
2016-09-22T06:43:29.492Z,9420
2016-09-22T06:44:29.633Z,9488
2016-09-22T06:45:29.497Z,9748
2016-09-22T06:46:29.170Z,10464
2016-09-22T06:47:29.492Z,10352
2016-09-22T06:48:29.518Z,10428
2016-09-22T06:49:29.457Z,10696
2016-09-22T06:50:29.754Z,10256
2016-09-22T06:51:29.170Z,9776
2016-09-22T06:52:29.544Z,9852
2016-09-22T06:53:29.808Z,9040
2016-09-22T06:54:29.300Z,9140
2016-09-22T06:55:29.571Z,9032
2016-09-22T06:56:29.684Z,8980
2016-09-22T06:57:29.922Z,9256
2016-09-22T06:58:29.925Z,10380
2016-09-22T06:59:30.158Z,10584
2016-09-22T07:00:29.393Z,10532
2016-09-22T07:01:30.123Z,10768
2016-09-22T07:02:29.777Z,10696
2016-09-22T07:03:30.062Z,10728
2016-09-22T07:04:30.138Z,11964
2016-09-22T07:05:30.093Z,13440
2016-09-22T07:06:30.110Z,14016
2016-09-22T07:07:29.934Z,14176
2016-09-22T07:08:29.589Z,14432
2016-09-22T07:09:29.894Z,14080
2016-09-22T07:10:30.218Z,13024
2016-09-22T07:11:30.393Z,12088
2016-09-22T07:12:29.659Z,11956
2016-09-22T07:13:30.072Z,11080
2016-09-22T07:14:30.002Z,10568
2016-09-22T07:15:30.006Z,11648
2016-09-22T07:16:30.363Z,12760
2016-09-22T07:17:29.742Z,13920
2016-09-22T07:18:30.442Z,14240
2016-09-22T07:19:30.425Z,14464
2016-09-22T07:20:30.124Z,14592
2016-09-22T07:21:30.141Z,14976
2016-09-22T07:22:30.211Z,16576
2016-09-22T07:23:30.261Z,17312
2016-09-22T07:24:30.628Z,18272
2016-09-22T07:25:30.562Z,18368
2016-09-22T07:26:30.604Z,19520
2016-09-22T07:27:30.597Z,15744
2016-09-22T07:28:30.303Z,10144
2016-09-22T07:29:30.363Z,7856
2016-09-22T07:30:30.360Z,7332
2016-09-22T07:31:30.673Z,7300
2016-09-22T07:32:30.712Z,7268
2016-09-22T07:33:30.507Z,7220
2016-09-22T07:34:30.530Z,7212
2016-09-22T07:35:30.883Z,7180
2016-09-22T07:36:30.822Z,7156
2016-09-22T07:37:30.513Z,7140
2016-09-22T07:38:30.903Z,7120
2016-09-22T07:39:30.602Z,7092
2016-09-22T07:40:30.915Z,7064
2016-09-22T07:41:30.600Z,7040
2016-09-22T07:42:30.956Z,7024
2016-09-22T07:43:31.017Z,6992
2016-09-22T07:44:30.666Z,6988
2016-09-22T07:45:30.395Z,6972
2016-09-22T07:46:30.744Z,6976
2016-09-22T07:47:30.486Z,6964
2016-09-22T07:48:30.817Z,6956
2016-09-22T07:49:31.102Z,6956
2016-09-22T07:50:31.112Z,6920
2016-09-22T07:51:31.153Z,6916
2016-09-22T07:52:31.159Z,6888
2016-09-22T07:53:31.188Z,6884
2016-09-22T07:54:30.914Z,6860
2016-09-22T07:55:30.618Z,6844
2016-09-22T07:56:30.948Z,6808
2016-09-22T07:57:30.983Z,6804
2016-09-22T07:58:30.994Z,6776
2016-09-22T07:59:30.703Z,6784
2016-09-22T08:00:31.046Z,6800
2016-09-22T08:01:30.747Z,6800
2016-09-22T08:02:31.407Z,6792
2016-09-22T08:03:31.154Z,6764
2016-09-22T08:04:31.178Z,6752
2016-09-22T08:05:31.146Z,6708
2016-09-22T08:06:31.156Z,6664
2016-09-22T08:07:31.292Z,6644
2016-09-22T08:08:31.515Z,6632
2016-09-22T08:09:31.554Z,6604
2016-09-22T08:10:31.566Z,6588
2016-09-22T08:11:31.385Z,6572
2016-09-22T08:12:31.284Z,6548
2016-09-22T08:13:31.412Z,6544
2016-09-22T08:14:31.757Z,6528
2016-09-22T08:15:31.385Z,6504
2016-09-22T08:16:31.095Z,6484
2016-09-22T08:17:31.413Z,6484
2016-09-22T08:18:31.422Z,6472
2016-09-22T08:19:31.770Z,6456
2016-09-22T08:20:31.780Z,6456
2016-09-22T08:21:31.818Z,6448
2016-09-22T08:22:31.223Z,6432
2016-09-22T08:23:31.552Z,6424
2016-09-22T08:24:31.583Z,6432
2016-09-22T08:25:31.587Z,6436
2016-09-22T08:26:32.022Z,6440
2016-09-22T08:27:31.958Z,6452
2016-09-22T08:28:31.666Z,6460
2016-09-22T08:29:31.686Z,6456
2016-09-22T08:30:31.724Z,6444
2016-09-22T08:31:31.424Z,6456
2016-09-22T08:32:31.757Z,6456
2016-09-22T08:33:32.328Z,6452
2016-09-22T08:34:31.802Z,6444
2016-09-22T08:35:31.859Z,6420
2016-09-22T08:36:31.845Z,6416
2016-09-22T08:37:32.021Z,6412
2016-09-22T08:38:31.898Z,6372
2016-09-22T08:39:32.233Z,6340
2016-09-22T08:40:31.936Z,6336
2016-09-22T08:41:31.660Z,6324
2016-09-22T08:42:32.038Z,6236
2016-09-22T08:43:32.119Z,6272
2016-09-22T08:44:32.029Z,6272
2016-09-22T08:45:32.413Z,6256
2016-09-22T08:46:31.785Z,6252
2016-09-22T08:47:32.456Z,6216
2016-09-22T08:48:32.599Z,6180
2016-09-22T08:49:31.841Z,6164
2016-09-22T08:50:32.192Z,6160
2016-09-22T08:51:31.889Z,6144
2016-09-22T08:52:31.908Z,6148
2016-09-22T08:53:32.168Z,6152
2016-09-22T08:54:32.639Z,6160
2016-09-22T08:55:32.034Z,6152
2016-09-22T08:56:32.640Z,6148
2016-09-22T08:57:32.662Z,6124
2016-09-22T08:58:32.800Z,6132
2016-09-22T08:59:32.670Z,6104
2016-09-22T09:00:32.513Z,6052
2016-09-22T09:01:32.784Z,6012
2016-09-22T09:02:32.915Z,5988
2016-09-22T09:03:32.837Z,5960
2016-09-22T09:04:32.879Z,5960
2016-09-22T09:05:32.859Z,5944
2016-09-22T09:06:32.248Z,5936
2016-09-22T09:07:32.597Z,5928
2016-09-22T09:08:32.909Z,5936
2016-09-22T09:09:32.949Z,5936
2016-09-22T09:10:32.999Z,5932
2016-09-22T09:11:32.704Z,5936
2016-09-22T09:12:33.067Z,5952
2016-09-22T09:13:32.772Z,5956
2016-09-22T09:14:32.729Z,5952
2016-09-22T09:15:32.448Z,5964
2016-09-22T09:16:32.488Z,5964
2016-09-22T09:17:32.830Z,5940
2016-09-22T09:18:33.050Z,5924
2016-09-22T09:19:33.292Z,5916
2016-09-22T09:20:32.259Z,5900
2016-09-22T09:21:32.987Z,5872
2016-09-22T09:22:32.927Z,5852
2016-09-22T09:23:33.096Z,5860
2016-09-22T09:24:33.296Z,5840
2016-09-22T09:25:33.006Z,5824
2016-09-22T09:26:32.727Z,5816
2016-09-22T09:27:33.058Z,5796
2016-09-22T09:28:33.382Z,5808
2016-09-22T09:29:33.316Z,5820
2016-09-22T09:30:33.416Z,5816
2016-09-22T09:31:33.169Z,5816
2016-09-22T09:32:32.562Z,5796
2016-09-22T09:33:33.178Z,5788
2016-09-22T09:34:33.539Z,5768
2016-09-22T09:35:32.638Z,5756
2016-09-22T09:36:33.289Z,5732
2016-09-22T09:37:32.985Z,5672
2016-09-22T09:38:33.667Z,5648
2016-09-22T09:39:33.356Z,5684
2016-09-22T09:40:33.378Z,5728
2016-09-22T09:41:33.445Z,5740
2016-09-22T09:42:33.411Z,5724
2016-09-22T09:43:33.484Z,5712
2016-09-22T09:44:33.147Z,5700
2016-09-22T09:45:33.581Z,5692
2016-09-22T09:46:33.508Z,5680
2016-09-22T09:47:33.912Z,5664
2016-09-22T09:48:33.895Z,5636
2016-09-22T09:49:33.657Z,5596
2016-09-22T09:50:33.695Z,5572
2016-09-22T09:51:33.323Z,5556
2016-09-22T09:52:33.350Z,5540
2016-09-22T09:53:33.674Z,5528
2016-09-22T09:54:33.783Z,5504
2016-09-22T09:55:34.038Z,5488
2016-09-22T09:56:33.444Z,5460
2016-09-22T09:57:33.474Z,5444
2016-09-22T09:58:34.485Z,5424
2016-09-22T09:59:34.333Z,5384
2016-09-22T10:00:33.868Z,5364
2016-09-22T10:01:34.190Z,5356
2016-09-22T10:02:34.201Z,5360
2016-09-22T10:03:34.043Z,5368
2016-09-22T10:04:34.264Z,5372
2016-09-22T10:05:33.997Z,5412
2016-09-22T10:06:34.065Z,5420
2016-09-22T10:07:33.735Z,5424
2016-09-22T10:08:34.066Z,5408
2016-09-22T10:09:34.070Z,5376
2016-09-22T10:10:34.094Z,5368
2016-09-22T10:11:33.832Z,5368
2016-09-22T10:12:34.445Z,5340
2016-09-22T10:13:33.925Z,5420
2016-09-22T10:14:34.205Z,5472
2016-09-22T10:15:34.725Z,5456
2016-09-22T10:16:34.100Z,5452
2016-09-22T10:17:34.704Z,5472
2016-09-22T10:18:34.398Z,5592
2016-09-22T10:19:34.767Z,5716
2016-09-22T10:20:34.653Z,5764
2016-09-22T10:21:34.685Z,5852
2016-09-22T10:22:34.514Z,5992
2016-09-22T10:23:34.496Z,6112
2016-09-22T10:24:34.144Z,6240
2016-09-22T10:25:34.787Z,6296
2016-09-22T10:26:34.592Z,6276
2016-09-22T10:27:34.511Z,6272
2016-09-22T10:28:34.930Z,6360
2016-09-22T10:29:34.965Z,6300
2016-09-22T10:30:33.986Z,6328
2016-09-22T10:31:34.612Z,6296
2016-09-22T10:32:34.960Z,6276
2016-09-22T10:33:34.674Z,6272
2016-09-22T10:34:34.792Z,6248
2016-09-22T10:35:35.036Z,6248
2016-09-22T10:36:34.753Z,6228
2016-09-22T10:37:35.297Z,6208
2016-09-22T10:38:34.924Z,6080
2016-09-22T10:39:34.817Z,6048
2016-09-22T10:40:34.941Z,6112
2016-09-22T10:41:34.886Z,6172
2016-09-22T10:42:35.215Z,6172
2016-09-22T10:43:35.020Z,6112
2016-09-22T10:44:34.943Z,6080
2016-09-22T10:45:35.315Z,6112
2016-09-22T10:46:34.695Z,6208
2016-09-22T10:47:34.821Z,6228
2016-09-22T10:48:35.054Z,6304
2016-09-22T10:49:35.536Z,6372
2016-09-22T10:50:35.111Z,6424
2016-09-22T10:51:35.435Z,6536
2016-09-22T10:52:34.853Z,6644
2016-09-22T10:53:35.296Z,6692
2016-09-22T10:54:35.529Z,6628
2016-09-22T10:55:35.239Z,6664
2016-09-22T10:56:35.184Z,6680
2016-09-22T10:57:35.170Z,6656
2016-09-22T10:58:35.304Z,6592
2016-09-22T10:59:35.496Z,6544
2016-09-22T11:00:35.514Z,6564
2016-09-22T11:01:35.803Z,6536
2016-09-22T11:02:35.817Z,6492
2016-09-22T11:03:35.859Z,6416
2016-09-22T11:04:34.974Z,6416
2016-09-22T11:05:35.545Z,6428
2016-09-22T11:06:35.826Z,6412
2016-09-22T11:07:35.851Z,6420
2016-09-22T11:08:35.624Z,6440
2016-09-22T11:09:35.913Z,6384
2016-09-22T11:10:35.944Z,6312
2016-09-22T11:11:35.736Z,6280
2016-09-22T11:12:35.989Z,6280
2016-09-22T11:13:36.103Z,6312
2016-09-22T11:14:35.415Z,6316
2016-09-22T11:15:36.122Z,6356
2016-09-22T11:16:35.453Z,6396
2016-09-22T11:17:35.811Z,6436
2016-09-22T11:18:36.198Z,6416
2016-09-22T11:19:35.904Z,6340
2016-09-22T11:20:36.191Z,6344
2016-09-22T11:21:35.896Z,6396
2016-09-22T11:22:36.317Z,6472
2016-09-22T11:23:36.094Z,6548
2016-09-22T11:24:36.285Z,6592
2016-09-22T11:25:36.030Z,6612
2016-09-22T11:26:35.779Z,6660
2016-09-22T11:27:36.072Z,6760
2016-09-22T11:28:35.905Z,6840
2016-09-22T11:29:36.125Z,6896
2016-09-22T11:30:36.528Z,6928
2016-09-22T11:31:36.615Z,6956
2016-09-22T11:32:36.204Z,7016
2016-09-22T11:33:36.305Z,7072
2016-09-22T11:34:36.554Z,7152
2016-09-22T11:35:35.967Z,7224
2016-09-22T11:36:36.005Z,7308
2016-09-22T11:37:36.336Z,7420
2016-09-22T11:38:36.366Z,7524
2016-09-22T11:39:36.364Z,7632
2016-09-22T11:40:36.471Z,7704
2016-09-22T11:41:36.428Z,7824
2016-09-22T11:42:36.752Z,7912
2016-09-22T11:43:36.175Z,7976
2016-09-22T11:44:36.536Z,8040
2016-09-22T11:45:36.544Z,8084
2016-09-22T11:46:36.233Z,8112
2016-09-22T11:47:36.950Z,8180
2016-09-22T11:48:36.928Z,8244
2016-09-22T11:49:36.326Z,8304
2016-09-22T11:50:36.347Z,8328
2016-09-22T11:51:37.014Z,8344
2016-09-22T11:52:36.473Z,8356
2016-09-22T11:53:36.734Z,8340
2016-09-22T11:54:37.107Z,8320
2016-09-22T11:55:37.163Z,8328
2016-09-22T11:56:37.185Z,8364
2016-09-22T11:57:36.638Z,8392
2016-09-22T11:58:36.566Z,8356
2016-09-22T11:59:36.600Z,8356
2016-09-22T12:00:37.001Z,8332
2016-09-22T12:01:37.275Z,8272
2016-09-22T12:02:37.000Z,8184
2016-09-22T12:03:37.337Z,8108
2016-09-22T12:04:36.829Z,8116
2016-09-22T12:05:37.054Z,8160
2016-09-22T12:06:37.137Z,8148
2016-09-22T12:07:37.448Z,8116
2016-09-22T12:08:37.160Z,8144
2016-09-22T12:09:37.498Z,8136
2016-09-22T12:10:37.510Z,8220
2016-09-22T12:11:36.920Z,8032
2016-09-22T12:12:37.261Z,8116
2016-09-22T12:13:37.664Z,8180
2016-09-22T12:14:37.611Z,8208
2016-09-22T12:15:37.361Z,8256
2016-09-22T12:16:37.680Z,8344
2016-09-22T12:17:37.719Z,8432
2016-09-22T12:18:37.470Z,8632
2016-09-22T12:19:37.773Z,8712
2016-09-22T12:20:37.816Z,8956
2016-09-22T12:21:37.818Z,8736
2016-09-22T12:22:37.219Z,8624
2016-09-22T12:23:37.549Z,8604
2016-09-22T12:24:37.899Z,8980
2016-09-22T12:25:37.293Z,8924
2016-09-22T12:26:37.309Z,8856
2016-09-22T12:27:37.646Z,8784
2016-09-22T12:28:38.046Z,8776
2016-09-22T12:29:37.707Z,8968
2016-09-22T12:30:38.119Z,9204
2016-09-22T12:31:38.088Z,9564
2016-09-22T12:32:38.118Z,9744
2016-09-22T12:33:37.556Z,9928
2016-09-22T12:34:37.585Z,9996
2016-09-22T12:35:38.199Z,9908
2016-09-22T12:36:37.700Z,9900
2016-09-22T12:37:37.928Z,9820
2016-09-22T12:38:37.958Z,9948
2016-09-22T12:39:38.342Z,9948
2016-09-22T12:40:37.997Z,10068
2016-09-22T12:41:38.359Z,10244
2016-09-22T12:42:38.373Z,10832
2016-09-22T12:43:38.448Z,10648
2016-09-22T12:44:38.441Z,10600
2016-09-22T12:45:38.458Z,10768
2016-09-22T12:46:38.502Z,10812
2016-09-22T12:47:38.209Z,11304
2016-09-22T12:48:38.588Z,11608
2016-09-22T12:49:38.624Z,11804
2016-09-22T12:50:37.980Z,11884
2016-09-22T12:51:38.698Z,12096
2016-09-22T12:52:38.667Z,11900
2016-09-22T12:53:38.107Z,11940
2016-09-22T12:54:38.392Z,12176
2016-09-22T12:55:38.430Z,12068
2016-09-22T12:56:38.792Z,11972
2016-09-22T12:57:38.801Z,11836
2016-09-22T12:59:10.853Z,11812
2016-09-22T12:59:38.232Z,11760
2016-09-22T13:00:38.874Z,11464
2016-09-22T13:01:38.575Z,10932
2016-09-22T13:02:38.618Z,10584
2016-09-22T13:03:39.147Z,10624
2016-09-22T13:04:39.168Z,10796
2016-09-22T13:05:38.757Z,11080
2016-09-22T13:06:38.751Z,11220
2016-09-22T13:07:38.744Z,11168
2016-09-22T13:08:38.848Z,10884
2016-09-22T13:09:38.555Z,10820
2016-09-22T13:10:38.910Z,10920
2016-09-22T13:11:38.870Z,11072
2016-09-22T13:12:39.211Z,11276
2016-09-22T13:13:39.273Z,11308
2016-09-22T13:14:38.652Z,11196
2016-09-22T13:15:39.221Z,11152
2016-09-22T13:16:39.250Z,11136
2016-09-22T13:17:39.253Z,11068
2016-09-22T13:18:39.278Z,11072
2016-09-22T13:19:38.783Z,11028
2016-09-22T13:20:39.437Z,11032
2016-09-22T13:21:39.454Z,11044
2016-09-22T13:22:39.290Z,11236
2016-09-22T13:23:39.573Z,11332
2016-09-22T13:24:39.308Z,11472
2016-09-22T13:25:38.948Z,11404
2016-09-22T13:26:39.311Z,11196
2016-09-22T13:27:39.631Z,11112
2016-09-22T13:28:39.381Z,11276
2016-09-22T13:29:39.357Z,11508
2016-09-22T13:30:39.407Z,11568
2016-09-22T13:31:39.776Z,11700
2016-09-22T13:32:39.469Z,11844
2016-09-22T13:33:39.851Z,12160
2016-09-22T13:34:39.843Z,12320
2016-09-22T13:35:39.556Z,12332
2016-09-22T13:36:39.875Z,12308
2016-09-22T13:37:40.068Z,12144
2016-09-22T13:38:40.014Z,11984
2016-09-22T13:39:40.081Z,12048
2016-09-22T13:40:39.678Z,12252
2016-09-22T13:41:39.715Z,12432
2016-09-22T13:42:40.080Z,12444
2016-09-22T13:43:39.843Z,12316
2016-09-22T13:44:39.498Z,12144
2016-09-22T13:45:39.834Z,11916